Weather at Winterthur Airport

Public forecast

Using degrees Celsius for public forecast. Weather courtesy of forecast.io.

Closest aviation weather report (METAR) to Winterthur Airport

Closest report is Dübendorf Air Base, 8.6 nm (15.9 km) SW. Retrieved 2022/01/22 21:20 UTC (17 minutes ago):

LSMD 222120Z AUTO 00000KT 9999NDV R11/P2000N R29/M0050VP2000D NCD M03/M04 Q1034 RMK

Closest aviation forecast (TAF) to Winterthur Airport

Closest forecast is Dübendorf Air Base, 8.6 nm (15.9 km) SW. Retrieved 2022/01/22 17:00 UTC (5 hours ago):

TAF LSMD 221625Z 2217/2323 17003KT 9999 SCT060 BKN080 PROB40 2300/2306 BKN014 PROB40 TEMPO 2310/2316 05010KT